createdAt,value
2023-05-03T00:00:23.814Z,605.95
2023-05-03T00:02:53.971Z,613.95
2023-05-03T00:05:22.500Z,623.28
2023-05-03T00:07:52.282Z,623.30
2023-05-03T00:10:20.796Z,616.63
2023-05-03T00:12:49.223Z,610.22
2023-05-03T00:15:17.708Z,604.83
2023-05-03T00:17:46.403Z,612.83
2023-05-03T00:20:15.325Z,610.50
2023-05-03T00:22:43.817Z,590.95
2023-05-03T00:25:13.737Z,602.90
2023-05-03T00:27:42.288Z,601.90
2023-05-03T00:30:11.825Z,589.70
2023-05-03T00:32:40.249Z,594.83
2023-05-03T00:35:09.372Z,603.22
2023-05-03T00:37:38.561Z,601.75
2023-05-03T00:40:08.921Z,589.08
2023-05-03T00:42:38.622Z,606.17
2023-05-03T00:45:08.089Z,597.13
2023-05-03T00:47:38.156Z,601.38
2023-05-03T00:50:07.993Z,583.50
2023-05-03T00:52:36.511Z,593.50
2023-05-03T00:55:05.247Z,605.47
2023-05-03T00:57:33.852Z,600.80
2023-05-03T01:00:04.039Z,606.05
2023-05-03T01:02:32.858Z,617.22
2023-05-03T01:05:02.557Z,607.47
2023-05-03T01:07:38.249Z,616.38
2023-05-03T01:10:13.948Z,601.95
2023-05-03T01:12:49.753Z,580.08
2023-05-03T01:15:26.423Z,605.85
2023-05-03T01:17:58.459Z,597.35
2023-05-03T01:20:28.663Z,585.75
2023-05-03T01:23:02.988Z,601.33
2023-05-03T01:25:32.912Z,603.25
2023-05-03T01:28:01.554Z,602.50
2023-05-03T01:30:30.646Z,575.53
2023-05-03T01:33:06.262Z,604.35
2023-05-03T01:35:41.997Z,579.38
2023-05-03T01:38:11.308Z,596.88
2023-05-03T01:40:44.629Z,605.70
2023-05-03T01:43:14.658Z,580.03
2023-05-03T01:45:44.156Z,579.38
2023-05-03T01:48:13.027Z,584.05
2023-05-03T01:50:41.468Z,599.92
2023-05-03T01:53:10.048Z,571.72
2023-05-03T01:55:38.490Z,585.38
2023-05-03T01:58:08.388Z,592.33
2023-05-03T02:00:36.824Z,586.88
2023-05-03T02:03:05.487Z,587.85
2023-05-03T02:05:33.887Z,581.70
2023-05-03T02:08:02.284Z,609.05
2023-05-03T02:10:30.747Z,594.33
2023-05-03T02:12:59.307Z,585.53
2023-05-03T02:15:29.235Z,606.90
2023-05-03T02:17:58.687Z,591.13
2023-05-03T02:20:27.172Z,595.28
2023-05-03T02:22:56.200Z,583.78
2023-05-03T02:25:26.364Z,582.83
2023-05-03T02:27:55.931Z,611.45
2023-05-03T02:30:24.400Z,597.22
2023-05-03T02:32:54.255Z,604.38
2023-05-03T02:35:22.666Z,604.83
2023-05-03T02:37:51.304Z,611.40
2023-05-03T02:40:19.759Z,607.83
2023-05-03T02:42:48.292Z,612.70
2023-05-03T02:45:31.093Z,610.75
2023-05-03T02:48:00.980Z,604.88
2023-05-03T02:50:29.394Z,617.05
2023-05-03T02:52:58.308Z,602.75
2023-05-03T02:55:26.840Z,617.75
2023-05-03T02:57:55.234Z,623.65
2023-05-03T03:00:23.849Z,620.38
2023-05-03T03:02:52.367Z,614.97
2023-05-03T03:05:22.334Z,608.45
2023-05-03T03:07:51.187Z,612.55
2023-05-03T03:10:19.776Z,626.13
2023-05-03T03:12:48.329Z,622.30
2023-05-03T03:15:16.705Z,639.78
2023-05-03T03:20:38.601Z,625.17
2023-05-03T03:23:07.228Z,638.90
2023-05-03T03:25:35.611Z,633.97
2023-05-03T03:28:07.312Z,637.55
2023-05-03T03:30:35.844Z,626.30
2023-05-03T03:33:04.394Z,644.80
2023-05-03T03:35:32.934Z,633.03
2023-05-03T03:38:02.816Z,624.63
2023-05-03T03:40:31.395Z,612.90
2023-05-03T03:42:59.806Z,616.67
2023-05-03T03:45:28.217Z,629.65
2023-05-03T03:47:58.053Z,637.90
2023-05-03T03:50:26.879Z,619.83
2023-05-03T03:52:55.422Z,629.78
2023-05-03T03:55:25.308Z,625.90
2023-05-03T03:57:53.819Z,645.83
2023-05-03T04:00:22.350Z,647.47
2023-05-03T04:02:50.866Z,628.08
2023-05-03T04:05:19.561Z,624.45
2023-05-03T04:13:08.901Z,646.55
2023-05-03T04:15:37.572Z,635.50
2023-05-03T04:18:06.830Z,655.75
2023-05-03T04:20:38.188Z,659.65
2023-05-03T04:23:07.172Z,651.03
2023-05-03T04:25:40.966Z,665.53
2023-05-03T04:28:11.189Z,659.55
2023-05-03T04:30:49.735Z,643.50
2023-05-03T04:33:18.488Z,660.13
2023-05-03T04:36:02.264Z,643.63
2023-05-03T04:38:36.757Z,644.38
2023-05-03T04:41:05.488Z,635.90
2023-05-03T04:43:36.299Z,630.97
2023-05-03T04:46:05.292Z,640.67
2023-05-03T04:48:36.370Z,646.08
2023-05-03T04:51:10.572Z,646.63
2023-05-03T05:19:14.915Z,729.60
2023-05-03T05:21:43.782Z,595.47
2023-05-03T05:24:13.168Z,671.67
2023-05-03T05:26:44.980Z,597.55
2023-05-03T05:29:13.890Z,585.55
2023-05-03T05:31:42.982Z,582.63
2023-05-03T05:34:15.336Z,568.17
2023-05-03T05:36:44.886Z,584.83
2023-05-03T05:39:13.932Z,681.80
2023-05-03T05:41:42.822Z,605.00
2023-05-03T05:44:14.404Z,761.95
2023-05-03T05:46:45.136Z,702.03
2023-05-03T05:49:15.654Z,581.88
2023-05-03T05:51:45.175Z,727.55
2023-05-03T05:54:14.006Z,613.95
2023-05-03T05:56:43.056Z,601.75
2023-05-03T05:59:12.487Z,679.10
2023-05-03T06:01:45.378Z,698.97
2023-05-03T06:04:25.849Z,670.45
2023-05-03T06:06:54.744Z,565.25
2023-05-03T06:09:24.976Z,632.83
2023-05-03T06:11:53.927Z,806.78
2023-05-03T06:14:23.525Z,527.05
2023-05-03T06:16:52.100Z,525.58
2023-05-03T06:19:24.471Z,525.83
2023-05-03T06:21:53.145Z,640.05
2023-05-03T06:24:21.889Z,504.98
2023-05-03T06:26:50.433Z,554.47
2023-05-03T06:29:21.609Z,676.80
2023-05-03T06:31:50.583Z,503.35
2023-05-03T06:34:22.683Z,563.17
2023-05-03T06:36:52.860Z,577.88
2023-05-03T06:39:21.963Z,567.15
2023-05-03T06:41:50.784Z,579.28
2023-05-03T06:44:19.784Z,588.78
2023-05-03T06:46:49.115Z,610.67
2023-05-03T06:49:17.851Z,644.53
2023-05-03T06:51:48.053Z,663.92
2023-05-03T06:54:16.540Z,579.33
2023-05-03T06:56:45.311Z,604.20
2023-05-03T06:59:13.979Z,599.42
2023-05-03T07:01:42.594Z,625.65
2023-05-03T07:04:14.284Z,664.20
2023-05-03T07:06:55.522Z,642.00
2023-05-03T07:12:01.008Z,638.17
2023-05-03T07:14:31.881Z,641.67
2023-05-03T07:17:00.362Z,709.78
2023-05-03T07:19:30.162Z,586.08
2023-05-03T07:22:01.178Z,616.25
2023-05-03T07:24:32.324Z,618.35
2023-05-03T07:27:04.322Z,675.88
2023-05-03T07:29:33.793Z,623.13
2023-05-03T07:32:05.965Z,645.55
2023-05-03T07:34:34.497Z,626.75
2023-05-03T07:37:03.166Z,661.97
2023-05-03T07:39:33.158Z,793.35
2023-05-03T07:42:02.294Z,667.38
2023-05-03T07:44:30.940Z,618.47
2023-05-03T07:47:02.101Z,638.03
2023-05-03T07:49:31.356Z,614.33
2023-05-03T07:52:03.199Z,644.75
2023-05-03T07:54:33.790Z,682.08
2023-05-03T07:57:11.268Z,765.15
2023-05-03T07:59:40.203Z,674.28
2023-05-03T08:02:11.677Z,735.92
2023-05-03T08:04:40.418Z,712.72
2023-05-03T08:07:09.779Z,681.92
2023-05-03T08:09:43.412Z,688.67
2023-05-03T08:12:12.038Z,657.35
2023-05-03T08:17:11.945Z,678.58
2023-05-03T08:19:40.927Z,678.08
2023-05-03T08:22:11.077Z,791.28
2023-05-03T08:24:40.781Z,661.80
2023-05-03T08:27:09.589Z,651.33
2023-05-03T08:29:38.648Z,736.35
2023-05-03T08:32:07.258Z,763.63
2023-05-03T08:34:36.385Z,669.17
2023-05-03T08:37:05.470Z,689.70
2023-05-03T08:39:34.505Z,794.33
2023-05-03T08:42:08.438Z,680.58
2023-05-03T08:44:39.528Z,681.95
2023-05-03T08:47:08.478Z,692.63
2023-05-03T08:49:38.181Z,656.00
2023-05-03T08:52:08.139Z,701.03
2023-05-03T08:54:36.578Z,674.88
2023-05-03T08:57:07.438Z,686.67
2023-05-03T08:59:36.081Z,742.42
2023-05-03T09:02:04.538Z,705.85
2023-05-03T09:04:35.696Z,761.80
2023-05-03T09:07:09.386Z,688.28
2023-05-03T09:09:38.079Z,814.05
2023-05-03T09:12:09.351Z,654.00
2023-05-03T09:14:47.190Z,723.22
2023-05-03T09:17:17.378Z,678.15
2023-05-03T09:19:52.775Z,679.15
2023-05-03T09:22:21.457Z,661.88
2023-05-03T09:24:56.223Z,644.13
2023-05-03T09:27:26.592Z,667.70
2023-05-03T09:29:55.550Z,661.08
2023-05-03T09:32:25.033Z,752.95
2023-05-03T09:34:53.637Z,676.97
2023-05-03T09:37:38.537Z,655.10
2023-05-03T09:40:10.215Z,691.95
2023-05-03T09:42:47.292Z,654.33
2023-05-03T09:45:25.324Z,744.03
2023-05-03T09:47:55.874Z,684.20
2023-05-03T09:50:24.739Z,708.92
2023-05-03T09:52:53.448Z,686.38
2023-05-03T09:55:22.110Z,646.28
2023-05-03T09:57:55.038Z,720.40
2023-05-03T10:00:25.334Z,689.40
2023-05-03T10:02:58.644Z,710.03
2023-05-03T10:05:28.381Z,666.53
2023-05-03T10:07:58.512Z,672.15
2023-05-03T10:10:27.029Z,689.50
2023-05-03T10:12:57.234Z,663.22
2023-05-03T10:15:27.161Z,648.08
2023-05-03T10:17:55.911Z,720.38
2023-05-03T10:20:28.820Z,712.22
2023-05-03T10:23:10.805Z,715.88
2023-05-03T10:25:40.659Z,1061.32
2023-05-03T10:28:11.444Z,731.35
2023-05-03T10:30:40.823Z,702.50
2023-05-03T10:33:39.301Z,734.75
2023-05-03T10:36:10.605Z,702.83
2023-05-03T10:38:39.345Z,687.75
2023-05-03T10:41:07.842Z,682.72
2023-05-03T10:43:47.109Z,783.45
2023-05-03T10:46:36.485Z,637.10
2023-05-03T10:49:20.499Z,719.47
2023-05-03T10:51:49.242Z,628.28
2023-05-03T10:54:19.399Z,657.65
2023-05-03T10:56:51.911Z,683.60
2023-05-03T10:59:22.248Z,687.63
2023-05-03T11:01:52.400Z,770.28
2023-05-03T11:04:34.605Z,732.88
2023-05-03T11:07:04.508Z,700.50
2023-05-03T11:09:34.039Z,666.00
2023-05-03T11:12:06.726Z,719.15
2023-05-03T11:14:36.724Z,724.65
2023-05-03T11:17:05.185Z,670.88
2023-05-03T11:19:33.737Z,693.35
2023-05-03T11:22:03.100Z,667.78
2023-05-03T11:24:31.582Z,660.20
2023-05-03T11:27:00.238Z,669.53
2023-05-03T11:29:38.303Z,654.35
2023-05-03T11:32:10.593Z,685.53
2023-05-03T11:34:40.607Z,656.47
2023-05-03T11:37:10.925Z,667.03
2023-05-03T11:39:39.358Z,658.13
2023-05-03T11:42:08.348Z,637.15
2023-05-03T11:44:38.525Z,589.67
2023-05-03T11:47:09.490Z,636.15
2023-05-03T11:49:38.227Z,674.15
2023-05-03T11:52:06.713Z,649.47
2023-05-03T11:54:35.111Z,681.17
2023-05-03T11:57:14.314Z,621.80
2023-05-03T11:59:45.117Z,710.58
2023-05-03T12:02:15.123Z,780.63
2023-05-03T12:04:46.213Z,693.15
2023-05-03T12:07:18.640Z,652.90
2023-05-03T12:10:03.481Z,778.65
2023-05-03T12:12:40.670Z,589.40
2023-05-03T12:15:15.545Z,640.60
2023-05-03T12:17:48.987Z,533.40
2023-05-03T12:22:52.091Z,530.70
2023-05-03T12:25:21.697Z,556.78
2023-05-03T12:28:16.066Z,580.72
2023-05-03T12:30:46.066Z,593.80
2023-05-03T12:33:17.219Z,580.25
2023-05-03T12:35:48.047Z,626.50
2023-05-03T12:38:18.023Z,584.22
2023-05-03T12:40:47.183Z,591.10
2023-05-03T12:43:16.058Z,610.70
2023-05-03T12:45:52.351Z,632.00
2023-05-03T12:48:27.181Z,624.47
2023-05-03T12:51:13.227Z,581.47
2023-05-03T12:53:47.097Z,611.88
2023-05-03T12:56:16.318Z,640.92
2023-05-03T13:04:14.988Z,565.13
2023-05-03T13:06:47.036Z,524.60
2023-05-03T13:09:21.285Z,551.80
2023-05-03T13:11:53.199Z,616.47
2023-05-03T13:14:21.948Z,659.90
2023-05-03T13:16:52.006Z,525.15
2023-05-03T13:19:20.691Z,532.58
2023-05-03T13:21:49.853Z,586.05
2023-05-03T13:24:18.282Z,566.80
2023-05-03T13:26:47.013Z,507.00
2023-05-03T13:29:15.618Z,514.53
2023-05-03T13:31:44.180Z,526.83
2023-05-03T13:34:13.950Z,575.00
2023-05-03T13:36:42.381Z,576.50
2023-05-03T13:39:10.907Z,654.90
2023-05-03T13:41:42.193Z,572.40
2023-05-03T13:44:11.763Z,509.00
2023-05-03T13:46:41.505Z,504.67
2023-05-03T13:49:10.137Z,585.13
2023-05-03T13:51:40.169Z,514.53
2023-05-03T13:54:09.038Z,486.20
2023-05-03T13:56:38.006Z,487.42
2023-05-03T13:59:09.349Z,468.77
2023-05-03T14:01:38.480Z,475.42
2023-05-03T14:04:07.429Z,474.67
2023-05-03T14:06:37.706Z,464.88
2023-05-03T14:09:10.950Z,479.33
2023-05-03T14:11:42.042Z,546.20
2023-05-03T14:14:11.387Z,530.88
2023-05-03T14:16:42.013Z,534.28
2023-05-03T14:19:11.789Z,508.33
2023-05-03T14:21:41.871Z,484.70
2023-05-03T14:24:12.433Z,512.88
2023-05-03T14:26:41.167Z,503.08
2023-05-03T14:29:09.577Z,533.38
2023-05-03T14:31:38.020Z,596.42
2023-05-03T14:34:06.535Z,501.65
2023-05-03T14:36:38.861Z,441.60
2023-05-03T14:39:07.375Z,424.67
2023-05-03T14:41:37.284Z,447.08
2023-05-03T14:44:06.864Z,451.50
2023-05-03T14:46:35.435Z,458.23
2023-05-03T14:49:04.000Z,607.88
2023-05-03T14:51:32.875Z,468.80
2023-05-03T14:54:01.617Z,477.42
2023-05-03T14:56:31.742Z,420.98
2023-05-03T14:59:01.699Z,732.85
2023-05-03T15:01:30.161Z,440.88
2023-05-03T15:03:58.664Z,411.95
2023-05-03T15:06:30.653Z,445.55
2023-05-03T15:08:59.537Z,440.27
2023-05-03T15:11:28.599Z,550.17
2023-05-03T15:13:57.044Z,540.33
2023-05-03T15:16:27.000Z,474.02
2023-05-03T15:18:55.797Z,483.20
2023-05-03T15:21:24.293Z,474.55
2023-05-03T15:23:53.914Z,469.42
2023-05-03T15:26:24.333Z,474.67
2023-05-03T15:28:53.050Z,422.55
2023-05-03T15:31:21.699Z,530.42
2023-05-03T15:33:51.443Z,409.85
2023-05-03T15:36:19.743Z,516.15
2023-05-03T15:38:48.177Z,644.10
2023-05-03T15:41:16.752Z,419.55
2023-05-03T15:43:46.865Z,527.05
2023-05-03T15:46:15.919Z,470.67
2023-05-03T15:48:44.335Z,472.30
2023-05-03T15:51:14.021Z,575.83
2023-05-03T15:53:42.472Z,459.30
2023-05-03T15:56:11.387Z,583.30
2023-05-03T15:58:39.736Z,495.98
2023-05-03T16:01:08.224Z,503.85
2023-05-03T16:03:36.707Z,526.70
2023-05-03T16:06:06.896Z,455.10
2023-05-03T16:08:36.857Z,482.52
2023-05-03T16:11:05.487Z,436.05
2023-05-03T16:13:33.891Z,394.25
2023-05-03T16:16:03.165Z,491.20
2023-05-03T16:18:31.946Z,600.33
2023-05-03T16:21:01.393Z,401.27
2023-05-03T16:23:30.567Z,458.85
2023-05-03T16:26:01.081Z,517.40
2023-05-03T16:28:29.415Z,457.58
2023-05-03T16:30:57.768Z,466.30
2023-05-03T16:33:26.100Z,553.13
2023-05-03T16:35:54.482Z,408.70
2023-05-03T16:38:22.865Z,437.83
2023-05-03T16:40:51.262Z,442.90
2023-05-03T16:43:21.000Z,576.63
2023-05-03T16:45:57.402Z,475.00
2023-05-03T16:48:26.201Z,462.45
2023-05-03T16:51:00.044Z,608.53
2023-05-03T16:53:28.806Z,393.50
2023-05-03T16:55:57.730Z,439.73
2023-05-03T16:58:27.526Z,439.15
2023-05-03T17:00:56.117Z,507.33
2023-05-03T17:03:25.287Z,609.10
2023-05-03T17:05:54.116Z,469.17
2023-05-03T17:08:22.663Z,479.17
2023-05-03T17:10:51.222Z,483.15
2023-05-03T17:13:19.728Z,505.73
2023-05-03T17:15:49.675Z,540.10
2023-05-03T17:18:18.091Z,452.20
2023-05-03T17:20:46.432Z,673.33
2023-05-03T17:23:14.843Z,517.78
2023-05-03T17:25:44.428Z,487.42
2023-05-03T17:28:12.832Z,448.85
2023-05-03T17:30:41.217Z,513.60
2023-05-03T17:33:10.988Z,546.55
2023-05-03T17:35:39.475Z,501.95
2023-05-03T17:38:07.838Z,544.55
2023-05-03T17:40:38.350Z,548.90
2023-05-03T17:43:06.660Z,498.08
2023-05-03T17:45:35.041Z,542.05
2023-05-03T17:48:05.600Z,545.88
2023-05-03T17:50:35.577Z,686.70
2023-05-03T17:53:03.953Z,553.05
2023-05-03T17:55:34.885Z,601.35
2023-05-03T17:58:03.797Z,733.15
2023-05-03T18:00:43.121Z,585.42
2023-05-03T18:22:29.703Z,626.47
2023-05-03T18:27:30.096Z,622.10
2023-05-03T18:29:58.746Z,640.17
2023-05-03T18:32:27.248Z,676.80
2023-05-03T18:34:55.722Z,705.25
2023-05-03T18:37:30.532Z,714.08
2023-05-03T18:39:59.316Z,694.80
2023-05-03T18:42:27.784Z,732.92
2023-05-03T18:44:56.121Z,678.72
2023-05-03T19:20:01.474Z,682.97
2023-05-03T19:22:34.131Z,690.97
2023-05-03T19:25:04.783Z,612.28
2023-05-03T19:27:33.915Z,681.58
2023-05-03T19:30:13.448Z,623.72
2023-05-03T19:32:50.739Z,586.15
2023-05-03T19:35:45.960Z,593.65
2023-05-03T19:38:18.752Z,601.42
2023-05-03T19:41:02.771Z,611.22
2023-05-03T19:43:44.298Z,579.83
2023-05-03T19:46:35.098Z,602.08
2023-05-03T19:52:27.603Z,555.95
2023-05-03T19:54:57.831Z,585.67
2023-05-03T19:57:26.601Z,597.05
2023-05-03T19:59:55.563Z,593.85
2023-05-03T20:02:25.173Z,566.67
2023-05-03T20:04:53.868Z,586.58
2023-05-03T20:07:24.109Z,561.17
2023-05-03T20:09:52.779Z,579.55
2023-05-03T20:12:21.762Z,563.45
2023-05-03T20:14:50.301Z,590.25
2023-05-03T20:20:12.472Z,533.22
2023-05-03T20:22:44.369Z,584.83
2023-05-03T20:25:12.953Z,546.72
2023-05-03T20:27:41.446Z,570.13
2023-05-03T20:30:11.050Z,644.58
2023-05-03T20:32:40.433Z,567.47
2023-05-03T20:35:12.000Z,600.28
2023-05-03T20:37:41.919Z,604.80
2023-05-03T20:40:11.974Z,580.55
2023-05-03T20:42:40.450Z,517.42
2023-05-03T20:45:09.678Z,562.58
2023-05-03T20:47:38.061Z,576.85
2023-05-03T20:50:08.878Z,570.17
2023-05-03T20:52:37.724Z,557.13
2023-05-03T20:55:08.234Z,541.22
2023-05-03T20:57:42.486Z,616.47
2023-05-03T21:00:12.770Z,634.25
2023-05-03T21:02:41.668Z,613.15
2023-05-03T21:05:11.146Z,605.50
2023-05-03T21:07:39.922Z,581.25
2023-05-03T21:10:13.318Z,584.50
2023-05-03T21:12:42.221Z,692.03
2023-05-03T21:15:15.889Z,636.83
2023-05-03T21:17:46.270Z,638.97
2023-05-03T21:20:16.672Z,582.50
2023-05-03T21:22:45.703Z,623.47
2023-05-03T21:25:18.639Z,576.35
2023-05-03T21:27:47.282Z,583.63
2023-05-03T21:30:16.135Z,679.20
2023-05-03T21:32:45.768Z,551.60
2023-05-03T21:35:14.651Z,590.88
2023-05-03T21:37:44.116Z,627.78
2023-05-03T21:40:13.809Z,577.45
2023-05-03T21:42:44.215Z,694.42
2023-05-03T21:45:13.749Z,652.97
2023-05-03T21:47:42.296Z,573.90
2023-05-03T21:50:11.458Z,696.72
2023-05-03T21:52:40.581Z,619.20
2023-05-03T21:55:09.893Z,665.85
2023-05-03T21:57:38.552Z,641.30
2023-05-03T22:00:14.247Z,683.67
2023-05-03T22:02:42.901Z,661.47
2023-05-03T22:05:11.802Z,569.30
2023-05-03T22:07:40.390Z,610.58
2023-05-03T22:10:09.845Z,629.28
2023-05-03T22:12:38.483Z,682.42
2023-05-03T22:15:10.376Z,623.33
2023-05-03T22:17:39.122Z,557.97
2023-05-03T22:20:10.354Z,599.22
2023-05-03T22:22:38.758Z,602.13
2023-05-03T22:25:07.931Z,589.65
2023-05-03T22:27:37.280Z,580.42
2023-05-03T22:30:08.963Z,665.65
2023-05-03T22:32:37.431Z,533.00
2023-05-03T22:35:06.368Z,580.75
2023-05-03T22:37:35.080Z,568.33
2023-05-03T22:40:04.399Z,562.80
2023-05-03T22:42:33.158Z,694.05
2023-05-03T22:45:01.611Z,547.88
2023-05-03T22:47:31.507Z,670.53
2023-05-03T22:49:59.955Z,654.40
2023-05-03T22:52:28.495Z,587.90
2023-05-03T22:54:57.683Z,631.78
2023-05-03T22:57:26.167Z,565.42
2023-05-03T22:59:54.536Z,628.30
2023-05-03T23:02:23.063Z,607.63
2023-05-03T23:04:53.017Z,628.60
2023-05-03T23:07:21.525Z,593.97
2023-05-03T23:09:50.254Z,657.80
2023-05-03T23:12:18.655Z,588.83
2023-05-03T23:14:47.065Z,659.03
2023-05-03T23:17:16.117Z,617.80
2023-05-03T23:19:44.548Z,638.47
2023-05-03T23:22:14.267Z,583.20
2023-05-03T23:24:42.643Z,617.33
2023-05-03T23:27:12.512Z,650.25
2023-05-03T23:29:41.466Z,636.60
2023-05-03T23:32:10.554Z,619.05
2023-05-03T23:34:39.502Z,597.83
2023-05-03T23:37:07.853Z,599.45
2023-05-03T23:39:37.870Z,591.45
2023-05-03T23:42:06.357Z,598.03
2023-05-03T23:44:50.511Z,586.22
2023-05-03T23:47:22.682Z,576.08
2023-05-03T23:49:51.448Z,601.35
2023-05-03T23:52:20.411Z,596.58
2023-05-03T23:54:50.408Z,599.63
2023-05-03T23:57:18.882Z,594.33
2023-05-03T23:59:47.337Z,602.30
